Time;durP1;ratioP1;P1;durP2;ratioP2;P2;SDS_P1;SDS_P2;PMS_P1;PMS_P2;Temp;Humidity;BMP_temperature;BMP_pressure;BME280_temperature;BME280_humidity;BME280_pressure;Samples;Min_cycle;Max_cycle;Signal;HPM_P1;HPM_P2
2021/12/26 00:01:19;;;;;;;;;22.75;19.00;;;;;11.97;75.57;99641.44;5096343;27;45799;-77
2021/12/26 00:03:45;;;;;;;;;24.75;21.50;;;;;11.98;75.62;99640.47;5098304;27;45766;-78
2021/12/26 00:06:25;;;;;;;;;17.50;16.75;;;;;12.01;75.49;99639.34;5096157;27;46122;-78
2021/12/26 00:08:52;;;;;;;;;19.50;18.25;;;;;11.92;75.61;99630.53;5097786;27;45976;-77
2021/12/26 00:11:18;;;;;;;;;17.50;16.75;;;;;11.91;75.68;99615.75;5091628;27;45688;-78
2021/12/26 00:13:45;;;;;;;;;22.00;19.50;;;;;11.97;75.40;99630.09;5096564;27;45694;-78
2021/12/26 00:16:11;;;;;;;;;22.50;17.75;;;;;11.99;75.46;99633.38;5090942;27;46574;-78
2021/12/26 00:18:45;;;;;;;;;23.75;17.50;;;;;12.04;75.40;99639.03;5097302;27;45846;-77
2021/12/26 00:21:11;;;;;;;;;21.75;18.50;;;;;12.03;75.69;99640.03;5092273;27;45857;-77
2021/12/26 00:23:37;;;;;;;;;19.00;18.00;;;;;11.97;75.44;99635.34;5100450;27;45628;-78
2021/12/26 00:26:03;;;;;;;;;22.75;19.00;;;;;12.00;75.67;99635.03;5098112;27;45793;-78
2021/12/26 00:28:28;;;;;;;;;22.00;18.50;;;;;11.97;75.39;99636.19;5105620;27;45771;-78
2021/12/26 00:30:53;;;;;;;;;22.00;20.25;;;;;11.87;75.41;99609.13;5090883;27;45759;-79
2021/12/26 00:33:19;;;;;;;;;22.25;21.00;;;;;12.00;75.62;99632.41;5095960;27;45793;-78
2021/12/26 00:35:45;;;;;;;;;19.50;17.25;;;;;11.98;75.65;99616.00;5095039;27;46180;-77
2021/12/26 00:38:12;;;;;;;;;21.25;17.25;;;;;11.99;75.67;99615.00;5102505;27;45785;-76
2021/12/26 00:40:38;;;;;;;;;25.25;23.00;;;;;12.01;75.62;99624.41;5108635;27;45787;-78
2021/12/26 00:43:04;;;;;;;;;18.25;14.75;;;;;12.01;75.58;99610.47;5098285;27;45657;-78
2021/12/26 00:45:30;;;;;;;;;21.00;20.00;;;;;12.01;75.50;99615.72;5117262;27;45905;-78
2021/12/26 00:47:56;;;;;;;;;23.75;21.00;;;;;12.01;75.40;99605.19;5129175;27;45642;-79
2021/12/26 00:50:26;;;;;;;;;24.00;23.00;;;;;11.98;75.66;99610.75;5122402;27;45307;-78
2021/12/26 00:52:51;;;;;;;;;23.00;22.75;;;;;11.98;75.30;99619.47;5110372;27;46088;-77
2021/12/26 00:55:17;;;;;;;;;22.00;19.75;;;;;11.78;75.43;99592.41;5112540;27;46025;-78
2021/12/26 00:57:43;;;;;;;;;25.50;21.75;;;;;11.93;75.42;99623.47;5101607;27;45714;-78
2021/12/26 01:00:22;;;;;;;;;16.00;16.00;;;;;11.93;75.45;99623.47;5110837;27;45795;-76
2021/12/26 01:02:48;;;;;;;;;22.00;18.75;;;;;11.84;75.57;99611.19;5108748;27;46488;-77
2021/12/26 01:05:14;;;;;;;;;23.00;19.00;;;;;11.91;75.51;99622.78;5100309;27;46582;-77
2021/12/26 01:10:20;;;;;;;;;24.75;22.00;;;;;11.92;75.44;99625.28;5102247;27;45880;-77
2021/12/26 01:12:46;;;;;;;;;23.75;19.50;;;;;11.87;75.66;99611.75;5096049;27;46398;-78
2021/12/26 01:15:12;;;;;;;;;23.75;19.75;;;;;11.93;75.42;99626.09;5101782;27;46207;-78
2021/12/26 01:17:41;;;;;;;;;19.00;17.00;;;;;11.91;75.55;99621.00;5100298;27;45767;-75
2021/12/26 01:20:12;;;;;;;;;19.00;16.00;;;;;11.95;75.34;99624.16;5102964;27;45854;-78
2021/12/26 01:22:38;;;;;;;;;23.25;21.00;;;;;11.82;75.46;99603.47;5105817;27;46348;-77
2021/12/26 01:25:05;;;;;;;;;22.00;19.75;;;;;11.94;75.47;99620.69;5093395;27;46586;-78
2021/12/26 01:27:31;;;;;;;;;27.75;23.50;;;;;11.95;75.42;99626.78;5105619;27;45772;-78
2021/12/26 01:29:56;;;;;;;;;22.75;17.75;;;;;11.94;75.22;99622.47;5099077;27;45822;-78
2021/12/26 01:32:22;;;;;;;;;23.50;21.25;;;;;11.94;75.52;99617.22;5098868;27;46984;-79
2021/12/26 01:34:48;;;;;;;;;20.25;20.25;;;;;11.94;75.55;99618.06;5102066;27;46528;-77
2021/12/26 01:37:15;;;;;;;;;26.75;21.75;;;;;11.93;75.39;99620.84;5104503;27;45846;-76
2021/12/26 01:39:40;;;;;;;;;21.50;20.50;;;;;11.93;75.28;99615.59;5101968;27;45813;-78
2021/12/26 01:42:08;;;;;;;;;22.00;17.00;;;;;11.89;75.57;99612.41;5103032;27;46711;-77
2021/12/26 01:44:34;;;;;;;;;24.00;22.25;;;;;11.83;75.40;99593.78;5107891;27;47014;-78
2021/12/26 01:47:00;;;;;;;;;18.00;17.00;;;;;11.66;75.35;99579.59;5106171;27;45793;-78
2021/12/26 01:49:29;;;;;;;;;19.25;18.75;;;;;11.82;75.35;99598.22;5100066;27;45736;-79
2021/12/26 01:51:58;;;;;;;;;24.75;21.00;;;;;11.88;75.44;99608.13;5102974;27;46650;-78
2021/12/26 01:54:38;;;;;;;;;19.25;17.75;;;;;11.87;75.45;99603.03;5108271;27;47129;-76
2021/12/26 01:57:06;;;;;;;;;28.50;22.00;;;;;11.84;75.58;99600.69;5087056;27;46113;-76
2021/12/26 01:59:31;;;;;;;;;20.75;19.00;;;;;11.75;75.42;99594.50;5101677;27;45717;-77
2021/12/26 02:01:58;;;;;;;;;19.25;16.00;;;;;11.84;75.38;99612.00;5107223;27;46417;-78
2021/12/26 02:04:28;;;;;;;;;22.50;21.25;;;;;11.85;75.32;99615.47;5101388;27;46048;-77
2021/12/26 02:06:57;;;;;;;;;22.50;19.75;;;;;11.85;75.46;99620.72;5100435;27;45895;-77
2021/12/26 02:09:23;;;;;;;;;22.50;20.25;;;;;11.73;75.36;99599.88;5109306;27;46216;-76
2021/12/26 02:11:48;;;;;;;;;22.75;18.00;;;;;11.89;75.39;99630.78;5094560;27;45737;-78
2021/12/26 02:14:14;;;;;;;;;24.25;23.25;;;;;11.90;75.45;99629.81;5096574;27;45960;-77
2021/12/26 02:16:39;;;;;;;;;24.00;20.25;;;;;11.90;75.40;99631.63;5107151;27;45730;-78
2021/12/26 02:19:05;;;;;;;;;28.00;19.50;;;;;11.90;75.51;99626.38;5105195;27;45866;-76
2021/12/26 02:24:17;;;;;;;;;24.25;20.50;;;;;11.90;75.63;99621.13;5102251;27;46142;-77
2021/12/26 02:29:26;;;;;;;;;21.00;15.75;;;;;11.82;75.50;99603.47;5100052;27;45785;-78
2021/12/26 02:31:52;;;;;;;;;29.00;19.50;;;;;11.84;75.43;99604.13;5105972;27;46254;-77
2021/12/26 02:34:18;;;;;;;;;20.75;17.50;;;;;11.88;75.66;99610.75;5092275;27;46189;-77
2021/12/26 02:36:44;;;;;;;;;22.25;17.00;;;;;11.90;75.59;99626.38;5092951;27;45690;-76
2021/12/26 02:39:09;;;;;;;;;21.50;19.25;;;;;11.82;75.52;99608.72;5092393;27;45923;-77
2021/12/26 02:41:35;;;;;;;;;21.50;19.50;;;;;11.76;75.51;99596.16;5093972;27;46040;-77
2021/12/26 02:44:00;;;;;;;;;20.75;18.00;;;;;11.89;75.61;99608.97;5103973;27;46207;-78
2021/12/26 02:46:27;;;;;;;;;18.75;17.25;;;;;11.86;75.59;99604.00;5094916;27;45719;-78
2021/12/26 02:48:53;;;;;;;;;24.50;22.50;;;;;11.88;75.61;99599.44;5098793;27;46079;-77
2021/12/26 02:51:18;;;;;;;;;17.25;15.75;;;;;11.88;75.65;99609.91;5091573;27;46477;-78
2021/12/26 02:53:47;;;;;;;;;19.50;17.00;;;;;11.86;75.45;99604.00;5092533;27;46121;-77
2021/12/26 02:56:12;;;;;;;;;21.75;20.00;;;;;11.87;75.52;99606.50;5106688;27;45889;-79
2021/12/26 02:58:38;;;;;;;;;19.00;17.25;;;;;11.84;75.57;99592.81;5104462;27;45823;-77
2021/12/26 03:01:20;;;;;;;;;23.75;18.25;;;;;11.88;75.49;99602.06;5108074;27;45611;-76
2021/12/26 03:03:45;;;;;;;;;23.50;21.25;;;;;11.86;75.65;99598.75;5099063;27;46252;-77
2021/12/26 03:06:19;;;;;;;;;25.00;21.50;;;;;11.87;75.53;99609.13;5106148;27;45760;-76
2021/12/26 03:08:47;;;;;;;;;21.00;17.50;;;;;11.89;75.55;99606.34;5106369;27;45696;-77
2021/12/26 03:11:13;;;;;;;;;17.25;16.00;;;;;11.84;75.53;99592.81;5099650;27;46490;-77
2021/12/26 03:13:39;;;;;;;;;21.00;18.00;;;;;11.84;75.29;99598.88;5092982;27;45693;-78
2021/12/26 03:16:05;;;;;;;;;19.00;16.00;;;;;11.78;75.66;99591.59;5095957;27;45901;-77
2021/12/26 03:18:30;;;;;;;;;20.25;16.75;;;;;11.63;75.62;99562.31;5097293;27;47158;-79
2021/12/26 03:20:56;;;;;;;;;22.75;19.25;;;;;11.85;75.56;99600.56;5097125;27;46440;-76
2021/12/26 03:23:25;;;;;;;;;21.25;18.00;;;;;11.79;75.53;99593.25;5105531;27;45792;-77
2021/12/26 03:25:56;;;;;;;;;25.25;18.50;;;;;11.78;75.56;99586.34;5100325;27;45679;-78
2021/12/26 03:28:23;;;;;;;;;21.25;20.50;;;;;11.74;75.61;99577.09;5100809;27;46159;-78
2021/12/26 03:30:50;;;;;;;;;19.00;16.75;;;;;11.81;75.54;99599.19;5111844;27;46479;-78
2021/12/26 03:33:16;;;;;;;;;21.25;18.75;;;;;11.80;75.54;99599.31;5098399;27;46132;-78
2021/12/26 03:35:41;;;;;;;;;22.25;21.00;;;;;11.78;75.79;99597.66;5084422;27;45781;-78
2021/12/26 03:38:09;;;;;;;;;23.00;21.25;;;;;11.78;75.57;99602.91;5087234;27;45949;-78
2021/12/26 03:40:38;;;;;;;;;21.75;18.75;;;;;11.79;75.44;99598.50;5070420;27;48388;-77
2021/12/26 03:43:04;;;;;;;;;23.50;20.75;;;;;11.72;75.53;99585.06;5075533;27;46250;-76
2021/12/26 03:45:30;;;;;;;;;25.75;22.25;;;;;11.77;75.77;99595.16;5082956;27;45710;-77
2021/12/26 03:47:56;;;;;;;;;25.75;21.00;;;;;11.77;75.60;99598.63;5085437;27;45651;-76
2021/12/26 03:50:22;;;;;;;;;22.00;20.25;;;;;11.76;75.55;99593.53;5080524;27;45695;-77
2021/12/26 03:52:51;;;;;;;;;20.00;17.00;;;;;11.65;75.55;99584.00;5078467;27;46540;-77
2021/12/26 03:55:18;;;;;;;;;23.75;21.75;;;;;11.75;75.37;99594.50;5072909;27;45907;-78
2021/12/26 03:57:43;;;;;;;;;22.00;20.00;;;;;11.72;75.73;99586.88;5076616;27;45632;-77
2021/12/26 04:00:11;;;;;;;;;22.50;20.75;;;;;11.72;75.66;99586.88;5076652;27;46751;-78
2021/12/26 04:02:36;;;;;;;;;23.00;21.50;;;;;11.66;75.64;99577.75;5072619;27;46313;-78
2021/12/26 04:05:02;;;;;;;;;24.50;20.25;;;;;11.74;75.86;99592.84;5088969;27;46933;-78
2021/12/26 04:07:27;;;;;;;;;22.50;20.00;;;;;11.75;75.68;99584.00;5075663;27;46171;-78
2021/12/26 04:09:53;;;;;;;;;23.50;21.25;;;;;11.73;75.56;99591.19;5082049;27;45619;-76
2021/12/26 04:12:18;;;;;;;;;26.25;22.00;;;;;11.74;75.62;99582.34;5083385;27;45680;-76
2021/12/26 04:14:44;;;;;;;;;26.25;22.00;;;;;11.74;75.55;99585.81;5081039;27;47734;-77
2021/12/26 04:17:09;;;;;;;;;22.25;21.00;;;;;11.69;75.73;99566.16;5090040;27;45658;-78
2021/12/26 04:19:35;;;;;;;;;24.75;20.25;;;;;11.75;75.71;99565.63;5086289;27;45696;-77
2021/12/26 04:22:02;;;;;;;;;29.00;24.50;;;;;11.73;75.54;99570.19;5076740;27;45814;-76
2021/12/26 04:24:28;;;;;;;;;26.75;21.50;;;;;11.74;75.61;99571.84;5090927;27;45859;-77
2021/12/26 04:26:53;;;;;;;;;25.50;22.25;;;;;11.73;75.63;99564.94;5074604;27;46037;-78
2021/12/26 04:29:18;;;;;;;;;27.25;24.00;;;;;11.72;75.63;99566.69;5083761;27;47074;-78
2021/12/26 04:31:44;;;;;;;;;25.75;22.50;;;;;11.69;75.79;99561.75;5078633;27;45773;-77
2021/12/26 04:34:09;;;;;;;;;26.00;21.50;;;;;11.68;75.71;99559.25;5087224;27;46240;-78
2021/12/26 04:36:35;;;;;;;;;21.75;20.75;;;;;11.61;75.51;99550.28;5102062;27;45793;-78
2021/12/26 04:39:00;;;;;;;;;29.75;24.25;;;;;11.67;75.66;99565.47;5114512;27;45826;-78
2021/12/26 04:41:25;;;;;;;;;20.50;19.75;;;;;11.69;75.72;99574.88;5094357;27;45693;-77
2021/12/26 04:43:51;;;;;;;;;24.50;23.00;;;;;11.68;75.59;99573.22;5105360;27;46036;-78
2021/12/26 04:46:16;;;;;;;;;22.50;19.50;;;;;11.68;75.74;99567.13;5108507;27;45998;-78
2021/12/26 04:48:44;;;;;;;;;24.75;23.75;;;;;11.68;75.72;99564.50;5103712;27;46229;-78
2021/12/26 04:51:11;;;;;;;;;27.25;23.50;;;;;11.69;75.72;99566.16;5101020;27;47041;-76
2021/12/26 04:53:38;;;;;;;;;23.00;21.00;;;;;11.61;76.01;99550.28;5115053;27;45821;-78
2021/12/26 04:56:04;;;;;;;;;25.00;21.50;;;;;11.68;75.77;99560.09;5094335;27;45723;-77
2021/12/26 04:58:30;;;;;;;;;26.25;19.75;;;;;11.66;75.82;99556.78;5100746;27;46682;-76
2021/12/26 05:00:56;;;;;;;;;27.25;22.75;;;;;11.66;75.65;99554.16;5098194;27;46441;-77
2021/12/26 05:03:22;;;;;;;;;22.25;21.50;;;;;11.70;75.77;99560.78;5098300;27;45754;-76
2021/12/26 05:05:47;;;;;;;;;26.50;21.00;;;;;11.71;75.61;99553.75;5096809;27;45928;-78
2021/12/26 05:08:13;;;;;;;;;21.50;19.50;;;;;11.72;75.73;99550.13;5105053;27;46380;-78
2021/12/26 05:10:40;;;;;;;;;24.75;21.25;;;;;11.58;75.77;99524.34;5109464;27;45749;-78
2021/12/26 05:13:06;;;;;;;;;23.25;19.75;;;;;11.73;75.79;99542.16;5111808;27;45942;-78
2021/12/26 05:15:31;;;;;;;;;24.25;21.50;;;;;11.73;75.89;99550.03;5109608;27;45765;-74
2021/12/26 05:17:57;;;;;;;;;21.50;18.75;;;;;11.71;75.82;99551.94;5102382;27;45912;-76
2021/12/26 05:20:25;;;;;;;;;20.50;18.25;;;;;11.65;75.87;99544.66;5111237;27;45767;-77
2021/12/26 05:22:52;;;;;;;;;22.75;18.00;;;;;11.69;75.85;99555.69;5100317;27;45726;-77
2021/12/26 05:25:18;;;;;;;;;21.00;19.75;;;;;11.69;75.92;99550.44;5099433;27;46230;-77
2021/12/26 05:27:44;;;;;;;;;21.50;19.25;;;;;11.69;75.83;99539.94;5101499;27;46743;-77
2021/12/26 05:30:12;;;;;;;;;21.75;20.00;;;;;11.68;75.92;99543.53;5105151;27;45757;-77
2021/12/26 05:32:39;;;;;;;;;21.75;19.00;;;;;11.67;75.97;99542.69;5104625;27;45720;-78
2021/12/26 05:35:07;;;;;;;;;27.00;22.25;;;;;11.67;75.92;99536.63;5101948;27;45907;-77
2021/12/26 05:37:33;;;;;;;;;19.50;18.25;;;;;11.65;75.96;99542.03;5110527;27;46567;-76
2021/12/26 05:40:00;;;;;;;;;21.50;18.25;;;;;11.60;75.98;99535.53;5103529;27;46099;-76
2021/12/26 05:42:26;;;;;;;;;24.75;19.25;;;;;11.65;76.02;99539.41;5105094;27;45742;-77
2021/12/26 05:44:52;;;;;;;;;23.25;21.00;;;;;11.64;76.25;99529.03;5116529;27;45667;-77
2021/12/26 05:47:17;;;;;;;;;17.25;16.75;;;;;11.65;76.05;99535.94;5101654;27;46401;-76
2021/12/26 05:49:42;;;;;;;;;22.75;17.75;;;;;11.61;76.11;99532.75;5099950;27;45909;-78
2021/12/26 05:52:09;;;;;;;;;18.50;17.50;;;;;11.60;75.89;99531.13;5104744;27;45845;-77
2021/12/26 05:54:35;;;;;;;;;19.00;15.25;;;;;11.64;76.00;99543.00;5108139;27;45790;-77
2021/12/26 05:57:00;;;;;;;;;22.00;20.50;;;;;11.65;76.01;99536.78;5110492;27;45833;-77
2021/12/26 05:59:26;;;;;;;;;23.00;20.25;;;;;11.54;75.96;99529.06;5102777;27;46494;-77
2021/12/26 06:01:51;;;;;;;;;19.25;17.50;;;;;11.64;75.99;99542.16;5101723;27;45981;-77
2021/12/26 06:04:17;;;;;;;;;20.00;17.25;;;;;11.64;75.98;99542.16;5107165;27;45664;-77
2021/12/26 06:06:44;;;;;;;;;18.25;17.00;;;;;11.65;76.15;99549.06;5100454;27;46297;-77
2021/12/26 06:09:10;;;;;;;;;21.00;20.50;;;;;11.65;75.92;99543.81;5101294;27;46092;-78
2021/12/26 06:11:36;;;;;;;;;20.50;18.50;;;;;11.56;76.06;99524.50;5099484;27;46978;-84
2021/12/26 06:14:01;;;;;;;;;22.75;20.00;;;;;11.64;76.27;99534.28;5082837;27;45941;-77
2021/12/26 06:16:27;;;;;;;;;20.75;18.00;;;;;11.68;76.15;99538.28;5100489;27;45699;-75
2021/12/26 06:18:52;;;;;;;;;20.00;18.75;;;;;11.70;75.99;99541.59;5095709;27;46141;-77
2021/12/26 06:21:18;;;;;;;;;18.75;16.00;;;;;11.72;76.08;99550.13;5102755;27;45826;-77
2021/12/26 06:23:50;;;;;;;;;20.50;17.00;;;;;11.67;76.10;99545.31;5097903;27;45955;-78
2021/12/26 06:26:19;;;;;;;;;20.50;16.75;;;;;11.73;76.08;99542.16;5105117;27;46768;-78
2021/12/26 06:28:45;;;;;;;;;16.50;14.50;;;;;11.73;76.06;99539.53;5093479;27;46843;-78
2021/12/26 06:31:11;;;;;;;;;20.00;16.25;;;;;11.76;76.13;99536.66;5081427;27;46251;-74
2021/12/26 06:33:37;;;;;;;;;16.50;16.25;;;;;11.75;75.99;99534.97;5101825;27;45749;-74
2021/12/26 06:36:02;;;;;;;;;20.25;16.50;;;;;11.77;76.14;99535.66;5076012;27;46830;-74
2021/12/26 06:38:28;;;;;;;;;16.00;14.50;;;;;11.80;76.04;99533.72;5104905;27;45540;-73
2021/12/26 06:40:54;;;;;;;;;19.50;17.00;;;;;11.80;76.12;99536.34;5079953;27;45991;-73
2021/12/26 06:43:19;;;;;;;;;15.75;14.50;;;;;11.79;75.95;99530.25;5089213;27;45691;-74
2021/12/26 06:45:45;;;;;;;;;18.75;17.25;;;;;11.78;76.05;99524.19;5093365;27;46899;-74
2021/12/26 06:48:10;;;;;;;;;16.25;15.00;;;;;11.82;76.20;99531.78;5093411;27;45829;-74
2021/12/26 06:50:36;;;;;;;;;20.50;17.00;;;;;11.82;76.15;99531.78;5093161;27;45691;-74
2021/12/26 06:53:03;;;;;;;;;15.00;14.00;;;;;11.79;76.01;99525.00;5093092;27;45708;-74
2021/12/26 06:55:28;;;;;;;;;17.00;17.00;;;;;11.77;76.14;99517.28;5095486;27;47427;-74
2021/12/26 06:57:54;;;;;;;;;23.50;19.50;;;;;11.80;76.27;99518.81;5092765;27;48095;-75
2021/12/26 07:00:19;;;;;;;;;20.50;17.50;;;;;11.83;75.78;99536.88;5093414;27;45738;-79
2021/12/26 07:02:45;;;;;;;;;18.50;16.00;;;;;11.83;75.80;99528.16;5088506;27;45986;-79
2021/12/26 07:05:12;;;;;;;;;18.25;16.50;;;;;11.84;76.04;99537.69;5104524;27;45716;-78
2021/12/26 07:07:38;;;;;;;;;16.50;16.00;;;;;11.79;76.00;99522.41;5095555;27;45702;-75
2021/12/26 07:10:05;;;;;;;;;16.00;16.00;;;;;11.83;76.17;99526.38;5093382;27;45836;-76
2021/12/26 07:12:30;;;;;;;;;22.00;16.50;;;;;11.85;76.03;99523.63;5097148;27;45820;-77
2021/12/26 07:14:56;;;;;;;;;22.00;15.00;;;;;11.86;76.05;99527.91;5107257;27;47365;-76
2021/12/26 07:17:21;;;;;;;;;16.25;15.00;;;;;11.86;76.03;99533.97;5095344;27;46047;-76
2021/12/26 07:19:46;;;;;;;;;18.25;15.25;;;;;11.87;76.00;99535.63;5093242;27;45742;-77
2021/12/26 07:22:12;;;;;;;;;17.00;15.50;;;;;11.85;76.02;99528.88;5092271;27;45639;-77
2021/12/26 07:24:43;;;;;;;;;17.25;16.00;;;;;11.85;76.05;99540.19;5101480;27;46532;-77
2021/12/26 07:27:09;;;;;;;;;17.00;16.50;;;;;11.88;76.09;99539.91;5097421;27;45737;-77
2021/12/26 07:29:34;;;;;;;;;19.50;16.50;;;;;11.88;76.23;99539.06;5093008;27;45783;-78
2021/12/26 07:31:59;;;;;;;;;17.25;16.00;;;;;11.89;76.23;99544.19;5105140;27;45797;-74
2021/12/26 07:34:25;;;;;;;;;16.25;16.00;;;;;11.90;76.26;99548.47;5078585;27;46483;-72
2021/12/26 07:36:50;;;;;;;;;19.75;16.50;;;;;11.92;76.45;99549.16;5092635;27;47021;-76
2021/12/26 07:39:15;;;;;;;;;16.00;15.25;;;;;11.93;76.25;99550.78;5093073;27;45891;-77
2021/12/26 07:41:41;;;;;;;;;15.00;14.25;;;;;11.95;76.09;99554.09;5087297;27;45760;-78
2021/12/26 07:44:06;;;;;;;;;15.00;13.00;;;;;11.93;76.21;99539.50;5104188;27;47106;-79
2021/12/26 07:46:32;;;;;;;;;17.25;16.25;;;;;11.95;76.19;99546.22;5092253;27;46130;-78
2021/12/26 07:48:57;;;;;;;;;15.00;11.00;;;;;11.96;75.97;99539.19;5097654;27;45680;-76
2021/12/26 07:51:22;;;;;;;;;14.00;13.75;;;;;11.94;75.96;99541.13;5096743;27;45631;-75
2021/12/26 07:53:50;;;;;;;;;18.00;15.75;;;;;11.88;75.99;99528.56;5101585;27;46323;-75
2021/12/26 07:56:15;;;;;;;;;14.75;14.00;;;;;11.94;76.25;99534.06;5085932;27;46072;-75
2021/12/26 07:58:41;;;;;;;;;16.25;15.25;;;;;12.00;76.21;99544.00;5101953;27;46097;-76
2021/12/26 08:01:06;;;;;;;;;18.00;16.50;;;;;11.98;76.23;99545.13;5098493;27;45431;-75
2021/12/26 08:03:36;;;;;;;;;16.50;14.75;;;;;12.00;76.16;99553.66;5103564;27;46786;-74
2021/12/26 08:06:02;;;;;;;;;14.75;14.00;;;;;11.99;76.27;99558.09;5095592;27;46169;-77
2021/12/26 08:08:29;;;;;;;;;16.50;15.00;;;;;11.97;76.07;99552.19;5112791;27;45652;-76
2021/12/26 08:10:54;;;;;;;;;21.00;16.75;;;;;12.00;76.07;99559.75;5095524;27;45702;-76
2021/12/26 08:13:20;;;;;;;;;19.50;15.25;;;;;12.00;76.01;99553.66;5102276;27;45656;-77
2021/12/26 08:15:46;;;;;;;;;15.50;13.00;;;;;12.03;76.31;99556.03;5107552;27;47135;-77
2021/12/26 08:18:11;;;;;;;;;21.25;16.50;;;;;12.03;76.21;99556.84;5101624;27;45784;-75
2021/12/26 08:20:37;;;;;;;;;21.00;16.00;;;;;12.04;76.22;99557.66;5077658;27;45747;-76
2021/12/26 08:23:03;;;;;;;;;18.00;16.00;;;;;12.05;76.39;99557.53;5093468;27;47414;-74
2021/12/26 08:25:29;;;;;;;;;18.75;15.50;;;;;12.04;76.22;99561.09;5106035;27;45674;-75
2021/12/26 08:27:55;;;;;;;;;21.75;17.00;;;;;12.08;76.53;99566.91;5091914;27;45518;-74
2021/12/26 08:30:20;;;;;;;;;17.00;15.00;;;;;12.10;76.46;99567.59;5093979;27;45702;-76
2021/12/26 08:32:50;;;;;;;;;20.00;17.25;;;;;12.08;76.16;99569.53;5110525;27;45579;-74
2021/12/26 08:35:16;;;;;;;;;20.75;18.75;;;;;12.10;76.20;99570.22;5078390;27;45930;-74
2021/12/26 08:37:42;;;;;;;;;18.25;13.25;;;;;12.10;76.31;99564.97;5081540;27;45587;-75
2021/12/26 08:40:08;;;;;;;;;24.00;17.50;;;;;12.15;76.44;99578.47;5060120;27;45959;-75
2021/12/26 08:42:34;;;;;;;;;18.00;16.00;;;;;12.10;76.30;99559.69;5052825;28;47719;-76
2021/12/26 08:45:01;;;;;;;;;17.75;16.25;;;;;12.15;76.40;99573.22;5071462;28;45785;-76
2021/12/26 08:47:26;;;;;;;;;20.25;18.25;;;;;12.18;76.29;99583.47;5072255;27;45884;-73
2021/12/26 08:49:52;;;;;;;;;21.00;16.75;;;;;12.18;76.10;99584.28;5082885;27;45697;-76
2021/12/26 08:52:17;;;;;;;;;18.00;16.00;;;;;12.09;76.05;99565.94;5069466;27;47243;-77
2021/12/26 08:54:43;;;;;;;;;21.75;17.75;;;;;12.21;76.12;99591.03;5078427;27;46115;-75
2021/12/26 08:57:09;;;;;;;;;21.50;16.75;;;;;12.23;76.07;99588.28;5084592;27;45790;-74
2021/12/26 08:59:36;;;;;;;;;15.75;15.00;;;;;12.23;76.32;99593.53;5090076;27;45649;-74
2021/12/26 09:02:04;;;;;;;;;19.25;16.50;;;;;12.26;76.33;99583.53;5084552;27;45858;-73
2021/12/26 09:04:30;;;;;;;;;18.50;15.50;;;;;12.29;76.48;99592.94;5081056;27;46002;-74
2021/12/26 09:06:56;;;;;;;;;17.00;13.25;;;;;12.31;76.31;99589.19;5083984;27;45868;-77
2021/12/26 09:09:21;;;;;;;;;20.75;16.00;;;;;12.31;76.20;99593.63;5087944;27;45644;-77
2021/12/26 09:11:47;;;;;;;;;21.00;16.00;;;;;12.31;76.21;99594.44;5085085;27;45676;-77
2021/12/26 09:14:12;;;;;;;;;18.75;16.75;;;;;12.36;76.23;99601.91;5076723;27;45706;-77
2021/12/26 09:16:38;;;;;;;;;16.50;15.75;;;;;12.34;76.39;99602.03;5084967;27;45633;-74
2021/12/26 09:19:04;;;;;;;;;14.75;14.25;;;;;12.34;76.37;99595.97;5079452;27;45664;-77
2021/12/26 09:21:30;;;;;;;;;16.50;15.00;;;;;12.41;76.09;99612.81;5094168;27;46514;-77
2021/12/26 09:23:56;;;;;;;;;15.75;14.75;;;;;12.41;76.30;99607.56;5078675;27;46151;-75
2021/12/26 09:26:21;;;;;;;;;16.50;14.75;;;;;12.43;76.51;99602.97;5085415;27;45745;-76
2021/12/26 09:28:48;;;;;;;;;18.25;15.75;;;;;12.41;76.30;99604.94;5074798;27;46199;-77
2021/12/26 09:31:13;;;;;;;;;16.75;15.25;;;;;12.46;76.43;99614.03;5075561;27;46479;-75
2021/12/26 09:33:39;;;;;;;;;14.00;12.00;;;;;12.48;76.16;99613.84;5081267;27;45581;-74
2021/12/26 09:36:04;;;;;;;;;14.25;13.50;;;;;12.48;76.36;99603.34;5084979;27;45707;-75
2021/12/26 09:38:30;;;;;;;;;13.00;12.00;;;;;12.51;76.05;99610.97;5074346;27;45878;-77
2021/12/26 09:40:56;;;;;;;;;15.25;13.00;;;;;12.53;76.09;99619.50;5073272;27;46088;-75
2021/12/26 09:43:22;;;;;;;;;13.00;10.50;;;;;12.51;76.45;99619.69;5073999;27;46256;-76
2021/12/26 09:45:48;;;;;;;;;14.25;11.75;;;;;12.54;76.31;99622.00;5074228;27;45962;-77
2021/12/26 09:48:13;;;;;;;;;17.25;13.50;;;;;12.56;75.74;99624.50;5078644;27;45665;-76
2021/12/26 09:50:39;;;;;;;;;10.00;9.50;;;;;12.57;76.43;99613.84;5055306;28;47521;-77
2021/12/26 09:53:04;;;;;;;;;10.75;10.00;;;;;12.58;76.37;99612.00;5074401;28;46084;-76
2021/12/26 09:55:30;;;;;;;;;14.25;10.75;;;;;12.54;76.48;99608.03;5079008;27;45606;-79
2021/12/26 09:57:56;;;;;;;;;11.25;10.75;;;;;12.58;76.26;99617.25;5074908;27;45630;-74
2021/12/26 10:00:24;;;;;;;;;15.50;13.00;;;;;12.63;76.18;99624.75;5073369;27;46322;-75
2021/12/26 10:03:10;;;;;;;;;14.00;12.00;;;;;12.64;76.22;99621.94;5073505;27;47231;-78
2021/12/26 10:06:00;;;;;;;;;9.50;9.50;;;;;12.65;76.20;99623.59;5074316;27;45746;-77
2021/12/26 10:08:27;;;;;;;;;10.25;7.75;;;;;12.67;76.18;99624.28;5055859;27;45686;-76
2021/12/26 10:11:08;;;;;;;;;11.50;10.50;;;;;12.67;76.46;99620.84;5073007;27;46317;-77
2021/12/26 10:13:43;;;;;;;;;9.75;9.00;;;;;12.68;76.01;99623.31;5074071;27;45973;-77
2021/12/26 10:16:08;;;;;;;;;11.25;9.25;;;;;12.65;76.56;99613.09;5073649;27;45656;-75
2021/12/26 10:18:39;;;;;;;;;8.75;8.00;;;;;12.67;76.38;99610.31;5055664;28;45633;-77
2021/12/26 10:21:23;;;;;;;;;15.75;11.25;;;;;12.67;76.16;99603.28;5091679;27;47564;-77
2021/12/26 10:23:49;;;;;;;;;9.50;9.25;;;;;12.66;76.17;99598.97;5076598;27;46160;-77
2021/12/26 10:26:26;;;;;;;;;11.00;10.00;;;;;12.71;76.02;99601.16;5093919;27;45741;-77
2021/12/26 10:29:12;;;;;;;;;9.50;9.50;;;;;12.72;76.45;99594.94;5078899;27;45736;-76
2021/12/26 10:31:48;;;;;;;;;11.50;9.50;;;;;12.71;76.52;99590.66;5072461;27;46567;-74
2021/12/26 10:34:16;;;;;;;;;9.00;9.00;;;;;12.77;76.40;99598.78;5087014;27;46962;-75
2021/12/26 10:36:43;;;;;;;;;10.00;9.00;;;;;12.76;76.06;99597.13;5094823;27;45610;-78
2021/12/26 10:39:15;;;;;;;;;11.00;8.50;;;;;12.77;76.48;99593.53;5088958;27;45598;-78
2021/12/26 10:41:46;;;;;;;;;10.25;8.00;;;;;12.78;76.58;99600.44;5106579;27;45630;-75
2021/12/26 10:44:33;;;;;;;;;10.25;9.75;;;;;12.80;76.44;99598.47;5093695;27;46114;-78
2021/12/26 10:47:06;;;;;;;;;10.00;9.00;;;;;12.75;76.58;99578.88;5093541;27;46062;-78
2021/12/26 10:49:44;;;;;;;;;9.75;7.75;;;;;12.83;76.55;99589.47;5093695;27;45639;-76
2021/12/26 10:52:30;;;;;;;;;10.00;8.00;;;;;12.86;76.26;99591.78;5092502;27;47619;-78
2021/12/26 10:55:38;;;;;;;;;7.50;7.50;;;;;12.84;76.54;99578.81;5098151;27;47368;-77
2021/12/26 10:58:19;;;;;;;;;12.50;10.50;;;;;12.88;76.67;99585.44;5040345;28;45755;-77
2021/12/26 11:00:47;;;;;;;;;10.75;9.25;;;;;12.89;76.36;99581.00;5028941;28;46017;-79
2021/12/26 11:03:21;;;;;;;;;10.75;9.00;;;;;12.90;76.42;99585.28;5024657;28;47540;-79
2021/12/26 11:05:49;;;;;;;;;11.00;10.00;;;;;12.89;76.71;99581.81;5043417;28;47524;-79
2021/12/26 11:08:17;;;;;;;;;11.75;10.00;;;;;12.90;76.37;99580.03;5030063;28;45814;-78
2021/12/26 11:10:48;;;;;;;;;10.75;9.00;;;;;12.90;76.97;99580.03;5025916;28;46347;-77
2021/12/26 11:13:19;;;;;;;;;9.00;8.00;;;;;12.85;76.41;99580.44;5029119;28;46459;-79
2021/12/26 11:15:46;;;;;;;;;9.75;8.75;;;;;12.89;76.84;99579.19;5029821;28;46121;-78
2021/12/26 11:18:15;;;;;;;;;10.50;9.25;;;;;12.89;76.88;99583.63;5030256;28;45704;-79
2021/12/26 11:20:44;;;;;;;;;10.00;9.25;;;;;12.89;76.59;99579.19;5029125;28;45733;-77
2021/12/26 11:23:16;;;;;;;;;8.00;6.25;;;;;12.90;76.47;99582.66;5004406;28;46589;-79
2021/12/26 11:25:51;;;;;;;;;10.00;8.00;;;;;12.91;76.80;99581.66;5026734;28;46513;-78
2021/12/26 11:28:26;;;;;;;;;8.00;7.00;;;;;12.92;76.81;99581.53;5030222;28;46093;-78